createdAt,value
2018-07-22T00:00:09.067Z,25.00
2018-07-22T00:01:14.826Z,25.00
2018-07-22T00:02:19.912Z,25.00
2018-07-22T00:03:24.858Z,25.00
2018-07-22T00:04:29.923Z,25.00
2018-07-22T00:05:35.067Z,25.00
2018-07-22T00:06:40.134Z,25.00
2018-07-22T00:07:45.220Z,25.00
2018-07-22T00:08:50.479Z,25.00
2018-07-22T00:09:56.195Z,25.00
2018-07-22T00:11:01.418Z,25.00
2018-07-22T00:12:06.939Z,25.00
2018-07-22T00:13:11.921Z,25.00
2018-07-22T00:14:16.898Z,25.00
2018-07-22T00:15:21.841Z,25.00
2018-07-22T00:16:27.375Z,25.00
2018-07-22T00:17:32.208Z,25.00
2018-07-22T00:18:37.038Z,25.00
2018-07-22T00:19:42.802Z,25.00
2018-07-22T00:20:47.810Z,25.00
2018-07-22T00:21:52.990Z,25.00
2018-07-22T00:22:58.020Z,25.00
2018-07-22T00:24:03.278Z,25.00
2018-07-22T00:25:08.316Z,24.90
2018-07-22T00:26:13.484Z,24.90
2018-07-22T00:27:18.534Z,24.90
2018-07-22T00:28:23.446Z,24.90
2018-07-22T00:29:28.500Z,24.90
2018-07-22T00:30:33.557Z,25.00
2018-07-22T00:31:38.580Z,25.00
2018-07-22T00:32:43.755Z,25.00
2018-07-22T00:33:49.017Z,25.00
2018-07-22T00:34:54.749Z,25.00
2018-07-22T00:35:59.821Z,25.00
2018-07-22T00:37:05.554Z,25.00
2018-07-22T00:38:10.697Z,25.00
2018-07-22T00:39:15.740Z,25.00
2018-07-22T00:40:20.903Z,25.00
2018-07-22T00:41:25.995Z,25.00
2018-07-22T00:42:30.886Z,25.00
2018-07-22T00:43:35.953Z,24.90
2018-07-22T00:44:41.707Z,24.90
2018-07-22T00:45:46.672Z,24.90
2018-07-22T00:46:52.476Z,24.90
2018-07-22T00:47:58.119Z,24.90
2018-07-22T00:49:03.156Z,24.90
2018-07-22T00:50:08.369Z,24.90
2018-07-22T00:51:13.390Z,24.90
2018-07-22T00:52:18.194Z,24.90
2018-07-22T00:53:23.788Z,24.90
2018-07-22T00:54:28.832Z,24.90
2018-07-22T00:55:33.891Z,24.90
2018-07-22T00:56:39.101Z,24.90
2018-07-22T00:57:44.089Z,24.90
2018-07-22T00:58:49.333Z,24.90
2018-07-22T00:59:54.244Z,24.90
2018-07-22T01:00:59.474Z,24.90
2018-07-22T01:02:04.533Z,24.90
2018-07-22T01:03:09.788Z,24.90
2018-07-22T01:04:14.853Z,24.90
2018-07-22T01:05:20.135Z,24.90
2018-07-22T01:06:25.479Z,24.90
2018-07-22T01:07:30.598Z,24.90
2018-07-22T01:08:35.944Z,24.90
2018-07-22T01:09:41.199Z,24.90
2018-07-22T01:10:46.476Z,24.90
2018-07-22T01:11:51.428Z,24.80
2018-07-22T01:12:56.727Z,24.80
2018-07-22T01:14:02.292Z,24.80
2018-07-22T01:15:08.104Z,24.80
2018-07-22T01:16:13.707Z,24.80
2018-07-22T01:17:19.271Z,24.80
2018-07-22T01:18:24.942Z,24.80
2018-07-22T01:19:30.193Z,24.80
2018-07-22T01:20:35.332Z,24.80
2018-07-22T01:21:40.468Z,24.80
2018-07-22T01:22:45.674Z,24.80
2018-07-22T01:23:50.810Z,24.80
2018-07-22T01:24:56.009Z,24.80
2018-07-22T01:26:01.195Z,24.80
2018-07-22T01:27:07.050Z,24.80
2018-07-22T01:28:12.996Z,24.80
2018-07-22T01:29:18.269Z,24.80
2018-07-22T01:30:24.067Z,24.80
2018-07-22T01:31:29.328Z,24.80
2018-07-22T01:32:34.426Z,24.80
2018-07-22T01:33:39.969Z,24.80
2018-07-22T01:34:44.868Z,24.80
2018-07-22T01:35:49.923Z,24.70
2018-07-22T01:36:54.929Z,24.70
2018-07-22T01:38:00.516Z,24.70
2018-07-22T01:39:06.106Z,24.70
2018-07-22T01:40:11.749Z,24.70
2018-07-22T01:41:17.020Z,24.70
2018-07-22T01:42:22.076Z,24.70
2018-07-22T01:43:27.414Z,24.70
2018-07-22T01:44:32.505Z,24.70
2018-07-22T01:45:37.778Z,24.70
2018-07-22T01:46:42.895Z,24.70
2018-07-22T01:47:48.147Z,24.70
2018-07-22T01:48:53.262Z,24.70
2018-07-22T01:49:58.873Z,24.70
2018-07-22T01:51:04.125Z,24.70
2018-07-22T01:52:09.290Z,24.70
2018-07-22T01:53:14.368Z,24.70
2018-07-22T01:54:20.302Z,24.70
2018-07-22T01:55:25.214Z,24.70
2018-07-22T01:56:30.846Z,24.70
2018-07-22T01:57:35.972Z,24.70
2018-07-22T01:58:41.143Z,24.70
2018-07-22T01:59:46.967Z,24.70
2018-07-22T02:00:52.846Z,24.70
2018-07-22T02:01:58.043Z,24.70
2018-07-22T02:03:03.692Z,24.70
2018-07-22T02:04:08.634Z,24.60
2018-07-22T02:05:13.690Z,24.70
2018-07-22T02:06:18.833Z,24.60
2018-07-22T02:07:24.140Z,24.70
2018-07-22T02:08:29.949Z,24.70
2018-07-22T02:09:35.068Z,24.70
2018-07-22T02:10:40.095Z,24.70
2018-07-22T02:11:45.087Z,24.70
2018-07-22T02:12:50.227Z,24.70
2018-07-22T02:13:55.570Z,24.60
2018-07-22T02:15:00.605Z,24.60
2018-07-22T02:16:06.492Z,24.60
2018-07-22T02:17:11.378Z,24.60
2018-07-22T02:18:16.448Z,24.60
2018-07-22T02:19:21.665Z,24.60
2018-07-22T02:20:27.273Z,24.60
2018-07-22T02:23:26.051Z,24.50
2018-07-22T02:24:31.325Z,24.60
2018-07-22T02:25:37.245Z,24.60
2018-07-22T02:26:42.337Z,24.50
2018-07-22T02:27:47.385Z,24.60
2018-07-22T02:28:52.312Z,24.50
2018-07-22T02:29:57.316Z,24.50
2018-07-22T02:31:03.328Z,24.50
2018-07-22T02:32:08.990Z,24.50
2018-07-22T02:33:13.916Z,24.50
2018-07-22T02:34:19.917Z,24.50
2018-07-22T02:35:25.123Z,24.50
2018-07-22T02:36:30.363Z,24.50
2018-07-22T02:37:35.611Z,24.50
2018-07-22T02:38:40.574Z,24.50
2018-07-22T02:39:46.584Z,24.50
2018-07-22T02:40:52.585Z,24.50
2018-07-22T02:41:57.717Z,24.50
2018-07-22T02:43:03.048Z,24.50
2018-07-22T02:44:08.314Z,24.50
2018-07-22T02:45:13.386Z,24.50
2018-07-22T02:46:19.352Z,24.50
2018-07-22T02:47:25.379Z,24.50
2018-07-22T02:48:30.490Z,24.50
2018-07-22T02:49:35.550Z,24.50
2018-07-22T02:50:41.556Z,24.50
2018-07-22T02:51:46.732Z,24.50
2018-07-22T02:52:51.787Z,24.40
2018-07-22T02:53:57.870Z,24.50
2018-07-22T02:55:02.936Z,24.50
2018-07-22T02:56:08.167Z,24.50
2018-07-22T02:57:13.259Z,24.50
2018-07-22T02:58:18.369Z,24.50
2018-07-22T02:59:24.392Z,24.50
2018-07-22T03:00:29.548Z,24.50
2018-07-22T03:01:35.598Z,24.50
2018-07-22T03:02:40.664Z,24.50
2018-07-22T03:03:45.760Z,24.50
2018-07-22T03:04:50.921Z,24.50
2018-07-22T03:05:55.882Z,24.50
2018-07-22T03:07:01.864Z,24.40
2018-07-22T03:08:07.032Z,24.50
2018-07-22T03:09:13.020Z,24.50
2018-07-22T03:10:18.953Z,24.50
2018-07-22T03:11:23.926Z,24.50
2018-07-22T03:12:29.615Z,24.40
2018-07-22T03:13:35.405Z,24.40
2018-07-22T03:14:40.522Z,24.40
2018-07-22T03:15:45.646Z,24.40
2018-07-22T03:16:50.613Z,24.40
2018-07-22T03:17:55.905Z,24.40
2018-07-22T03:19:01.030Z,24.40
2018-07-22T03:20:06.106Z,24.40
2018-07-22T03:21:11.427Z,24.40
2018-07-22T03:22:17.360Z,24.40
2018-07-22T03:23:22.512Z,24.40
2018-07-22T03:24:28.449Z,24.40
2018-07-22T03:25:33.396Z,24.40
2018-07-22T03:26:39.350Z,24.40
2018-07-22T03:27:44.593Z,24.40
2018-07-22T03:28:49.606Z,24.40
2018-07-22T03:29:54.542Z,24.40
2018-07-22T03:31:00.454Z,24.40
2018-07-22T03:32:06.202Z,24.40
2018-07-22T03:33:11.201Z,24.40
2018-07-22T03:34:17.002Z,24.40
2018-07-22T03:35:23.128Z,24.40
2018-07-22T03:36:28.874Z,24.40
2018-07-22T03:37:34.112Z,24.30
2018-07-22T03:38:39.248Z,24.40
2018-07-22T03:39:44.573Z,24.40
2018-07-22T03:40:50.538Z,24.40
2018-07-22T03:41:55.502Z,24.40
2018-07-22T03:43:01.498Z,24.30
2018-07-22T03:44:06.699Z,24.30
2018-07-22T03:45:11.920Z,24.30
2018-07-22T03:46:17.927Z,24.40
2018-07-22T03:47:23.296Z,24.30
2018-07-22T03:48:28.168Z,24.30
2018-07-22T03:49:33.250Z,24.30
2018-07-22T03:50:38.351Z,24.30
2018-07-22T03:51:43.551Z,24.30
2018-07-22T03:52:48.828Z,24.30
2018-07-22T03:53:53.761Z,24.30
2018-07-22T03:54:58.906Z,24.30
2018-07-22T03:56:04.187Z,24.30
2018-07-22T03:57:09.141Z,24.30
2018-07-22T03:58:14.296Z,24.30
2018-07-22T03:59:20.124Z,24.30
2018-07-22T04:00:25.392Z,24.30
2018-07-22T04:01:30.424Z,24.30
2018-07-22T04:02:36.422Z,24.30
2018-07-22T04:03:42.239Z,24.30
2018-07-22T04:04:47.473Z,24.30
2018-07-22T04:05:52.920Z,24.30
2018-07-22T04:06:58.188Z,24.30
2018-07-22T04:08:03.937Z,24.30
2018-07-22T04:09:09.266Z,24.30
2018-07-22T04:10:14.394Z,24.30
2018-07-22T04:11:19.358Z,24.30
2018-07-22T04:12:25.317Z,24.30
2018-07-22T04:13:30.245Z,24.30
2018-07-22T04:14:35.485Z,24.30
2018-07-22T04:15:41.505Z,24.30
2018-07-22T04:16:46.436Z,24.30
2018-07-22T04:17:51.576Z,24.30
2018-07-22T04:18:56.672Z,24.30
2018-07-22T04:20:02.493Z,24.30
2018-07-22T04:21:07.537Z,24.30
2018-07-22T04:22:13.323Z,24.30
2018-07-22T04:23:19.338Z,24.30
2018-07-22T04:24:24.341Z,24.30
2018-07-22T04:25:29.549Z,24.30
2018-07-22T04:26:35.262Z,24.30
2018-07-22T04:27:40.120Z,24.30
2018-07-22T04:28:45.027Z,24.30
2018-07-22T04:29:50.049Z,24.30
2018-07-22T04:30:54.873Z,24.30
2018-07-22T04:31:59.869Z,24.30
2018-07-22T04:33:05.810Z,24.30
2018-07-22T04:34:11.007Z,24.30
2018-07-22T04:35:15.835Z,24.30
2018-07-22T04:36:21.043Z,24.30
2018-07-22T04:37:26.771Z,24.30
2018-07-22T04:38:32.485Z,24.20
2018-07-22T04:39:37.637Z,24.30
2018-07-22T04:40:42.880Z,24.20
2018-07-22T04:41:47.920Z,24.30
2018-07-22T04:42:53.252Z,24.30
2018-07-22T04:43:58.321Z,24.30
2018-07-22T04:45:03.669Z,24.30
2018-07-22T04:46:09.408Z,24.30
2018-07-22T04:47:14.506Z,24.30
2018-07-22T04:48:19.604Z,24.30
2018-07-22T04:49:25.323Z,24.30
2018-07-22T04:50:30.398Z,24.30
2018-07-22T04:51:35.716Z,24.30
2018-07-22T04:52:41.707Z,24.30
2018-07-22T04:53:47.681Z,24.30
2018-07-22T04:54:52.702Z,24.30
2018-07-22T04:55:57.627Z,24.30
2018-07-22T04:57:03.326Z,24.30
2018-07-22T04:58:08.187Z,24.30
2018-07-22T04:59:12.978Z,24.30
2018-07-22T05:00:18.038Z,24.30
2018-07-22T05:01:22.981Z,24.30
2018-07-22T05:02:27.799Z,24.30
2018-07-22T05:03:32.803Z,24.30
2018-07-22T05:04:38.496Z,24.30
2018-07-22T05:05:43.789Z,24.30
2018-07-22T05:06:49.820Z,24.30
2018-07-22T05:07:55.072Z,24.30
2018-07-22T05:09:00.131Z,24.30
2018-07-22T05:10:05.313Z,24.30
2018-07-22T05:11:10.392Z,24.30
2018-07-22T05:12:15.225Z,24.30
2018-07-22T05:13:20.128Z,24.30
2018-07-22T05:14:25.245Z,24.30
2018-07-22T05:15:31.167Z,24.30
2018-07-22T05:16:36.048Z,24.30
2018-07-22T05:17:40.972Z,24.30
2018-07-22T05:18:45.883Z,24.30
2018-07-22T05:19:50.942Z,24.30
2018-07-22T05:20:56.721Z,24.30
2018-07-22T05:22:02.736Z,24.30
2018-07-22T05:23:07.996Z,24.30
2018-07-22T05:24:13.105Z,24.30
2018-07-22T05:25:18.144Z,24.30
2018-07-22T05:26:23.121Z,24.30
2018-07-22T05:27:28.896Z,24.30
2018-07-22T05:28:34.236Z,24.30
2018-07-22T05:29:39.040Z,24.30
2018-07-22T05:30:44.159Z,24.30
2018-07-22T05:31:50.142Z,24.30
2018-07-22T05:32:55.353Z,24.40
2018-07-22T05:34:00.385Z,24.30
2018-07-22T05:35:05.485Z,24.40
2018-07-22T05:36:10.508Z,24.40
2018-07-22T05:37:16.469Z,24.40
2018-07-22T05:38:22.254Z,24.40
2018-07-22T05:39:27.383Z,24.40
2018-07-22T05:40:33.378Z,24.40
2018-07-22T05:41:38.592Z,24.40
2018-07-22T05:42:43.425Z,24.40
2018-07-22T05:43:48.364Z,24.40
2018-07-22T05:44:53.254Z,24.40
2018-07-22T05:45:58.097Z,24.50
2018-07-22T05:47:03.200Z,24.50
2018-07-22T05:48:08.124Z,24.40
2018-07-22T05:49:13.311Z,24.40
2018-07-22T05:50:18.186Z,24.40
2018-07-22T05:51:23.091Z,24.50
2018-07-22T05:52:28.094Z,24.40
2018-07-22T05:53:33.172Z,24.50
2018-07-22T05:54:38.923Z,24.50
2018-07-22T05:55:44.034Z,24.50
2018-07-22T05:56:49.755Z,24.50
2018-07-22T05:57:55.015Z,24.50
2018-07-22T05:59:00.766Z,24.50
2018-07-22T06:00:06.488Z,24.50
2018-07-22T06:01:11.760Z,24.50
2018-07-22T06:02:16.710Z,24.50
2018-07-22T06:03:22.705Z,24.50
2018-07-22T06:04:28.409Z,24.50
2018-07-22T06:05:33.238Z,24.50
2018-07-22T06:06:39.144Z,24.50
2018-07-22T06:07:43.936Z,24.50
2018-07-22T06:08:48.801Z,24.50
2018-07-22T06:09:53.646Z,24.50
2018-07-22T06:10:58.742Z,24.50
2018-07-22T06:12:03.903Z,24.50
2018-07-22T06:13:08.705Z,24.50
2018-07-22T06:14:13.776Z,24.50
2018-07-22T06:15:19.526Z,24.60
2018-07-22T06:16:24.682Z,24.60
2018-07-22T06:17:29.719Z,24.60
2018-07-22T06:18:34.627Z,24.60
2018-07-22T06:19:39.703Z,24.60
2018-07-22T06:20:45.520Z,24.60
2018-07-22T06:21:51.549Z,24.60
2018-07-22T06:22:56.975Z,24.60
2018-07-22T06:24:02.322Z,24.60
2018-07-22T06:25:07.682Z,24.60
2018-07-22T06:26:12.810Z,24.60
2018-07-22T06:27:17.710Z,24.60
2018-07-22T06:28:22.859Z,24.60
2018-07-22T06:29:27.867Z,24.60
2018-07-22T06:30:33.090Z,24.70
2018-07-22T06:31:38.494Z,24.70
2018-07-22T06:32:43.649Z,24.70
2018-07-22T06:33:48.763Z,24.70
2018-07-22T06:34:53.914Z,24.70
2018-07-22T06:35:59.028Z,24.70
2018-07-22T06:37:04.877Z,24.70
2018-07-22T06:38:09.966Z,24.70
2018-07-22T06:39:14.936Z,24.70
2018-07-22T06:40:20.120Z,24.70
2018-07-22T06:41:25.468Z,24.70
2018-07-22T06:42:31.232Z,24.70
2018-07-22T06:43:36.329Z,24.70
2018-07-22T06:44:41.415Z,24.70
2018-07-22T06:45:46.614Z,24.70
2018-07-22T06:46:51.652Z,24.70
2018-07-22T06:47:56.495Z,24.70
2018-07-22T06:49:02.464Z,24.70
2018-07-22T06:50:07.615Z,24.70
2018-07-22T06:51:12.660Z,24.80
2018-07-22T06:52:17.987Z,24.80
2018-07-22T06:53:23.300Z,24.80
2018-07-22T06:54:28.459Z,24.80
2018-07-22T06:55:33.381Z,24.80
2018-07-22T06:56:38.395Z,24.80
2018-07-22T06:57:43.321Z,24.80
2018-07-22T06:58:49.233Z,24.80
2018-07-22T06:59:54.270Z,24.90
2018-07-22T07:00:59.948Z,24.80
2018-07-22T07:02:05.158Z,24.90
2018-07-22T07:03:10.175Z,24.90
2018-07-22T07:04:15.319Z,24.90
2018-07-22T07:05:21.730Z,24.90
2018-07-22T07:06:26.395Z,24.90
2018-07-22T07:07:31.184Z,24.90
2018-07-22T07:08:36.174Z,24.90
2018-07-22T07:09:42.166Z,24.90
2018-07-22T07:10:47.211Z,24.90
2018-07-22T07:11:52.112Z,24.90
2018-07-22T07:12:57.333Z,24.90
2018-07-22T07:14:03.300Z,25.00
2018-07-22T07:15:08.854Z,25.00
2018-07-22T07:16:13.625Z,25.00
2018-07-22T07:17:18.671Z,25.00
2018-07-22T07:18:23.565Z,25.00
2018-07-22T07:19:29.182Z,25.00
2018-07-22T07:20:34.033Z,25.00
2018-07-22T07:21:39.266Z,24.90
2018-07-22T07:22:44.419Z,24.90
2018-07-22T07:23:49.608Z,24.90
2018-07-22T07:24:54.444Z,24.90
2018-07-22T07:26:00.319Z,25.00
2018-07-22T07:27:05.455Z,25.00
2018-07-22T07:28:10.492Z,25.00
2018-07-22T07:29:15.749Z,25.00
2018-07-22T07:30:21.060Z,25.00
2018-07-22T07:31:25.984Z,25.00
2018-07-22T07:32:31.064Z,25.00
2018-07-22T07:33:36.138Z,25.00
2018-07-22T07:34:41.215Z,25.00
2018-07-22T07:35:46.186Z,25.00
2018-07-22T07:36:51.322Z,25.00
2018-07-22T07:37:56.395Z,25.00
2018-07-22T07:39:01.207Z,25.00
2018-07-22T07:40:06.117Z,25.00
2018-07-22T07:41:11.226Z,25.00
2018-07-22T07:42:17.287Z,25.00
2018-07-22T07:43:23.284Z,25.10
2018-07-22T07:44:28.351Z,25.10
2018-07-22T07:45:34.116Z,25.10
2018-07-22T07:46:39.257Z,25.00
2018-07-22T07:47:44.467Z,25.10
2018-07-22T07:48:49.644Z,25.10
2018-07-22T07:49:55.003Z,25.10
2018-07-22T07:51:01.006Z,25.10
2018-07-22T07:52:05.988Z,25.10
2018-07-22T07:53:11.058Z,25.10
2018-07-22T07:54:16.111Z,25.10
2018-07-22T07:55:21.106Z,25.10
2018-07-22T07:56:26.832Z,25.10
2018-07-22T07:57:31.634Z,25.10
2018-07-22T07:58:36.899Z,25.10
2018-07-22T07:59:42.797Z,25.10
2018-07-22T08:00:47.660Z,25.10
2018-07-22T08:01:52.777Z,25.10
2018-07-22T08:02:58.496Z,25.10
2018-07-22T08:04:03.571Z,25.10
2018-07-22T08:05:08.662Z,25.10
2018-07-22T08:06:13.920Z,25.10
2018-07-22T08:07:18.968Z,25.10
2018-07-22T08:08:24.158Z,25.10
2018-07-22T08:09:29.297Z,25.10
2018-07-22T08:10:34.526Z,25.10
2018-07-22T08:11:40.394Z,25.10
2018-07-22T08:12:46.195Z,25.10
2018-07-22T08:13:52.067Z,25.10
2018-07-22T08:14:57.111Z,25.10
2018-07-22T08:16:02.912Z,25.10
2018-07-22T08:17:08.571Z,25.10
2018-07-22T08:18:13.442Z,25.10
2018-07-22T08:19:18.488Z,25.10
2018-07-22T08:20:23.568Z,25.10
2018-07-22T08:21:28.581Z,25.10
2018-07-22T08:22:34.261Z,25.10
2018-07-22T08:23:40.216Z,25.10
2018-07-22T08:24:45.308Z,25.10
2018-07-22T08:25:50.170Z,25.10
2018-07-22T08:26:56.028Z,25.10
2018-07-22T08:28:01.403Z,25.10
2018-07-22T08:29:06.373Z,25.10
2018-07-22T08:30:11.556Z,25.20
2018-07-22T08:31:17.416Z,25.20
2018-07-22T08:32:22.339Z,25.20
2018-07-22T08:33:28.049Z,25.20
2018-07-22T08:34:33.900Z,25.20
2018-07-22T08:35:38.991Z,25.20
2018-07-22T08:36:44.024Z,25.10
2018-07-22T08:37:48.949Z,25.20
2018-07-22T08:38:53.932Z,25.20
2018-07-22T08:39:58.851Z,25.20
2018-07-22T08:41:04.240Z,25.20
2018-07-22T08:42:09.204Z,25.20
2018-07-22T08:43:14.465Z,25.20
2018-07-22T08:44:19.562Z,25.20
2018-07-22T08:45:24.966Z,25.20
2018-07-22T08:46:30.163Z,25.20
2018-07-22T08:47:35.269Z,25.20
2018-07-22T08:48:40.389Z,25.20
2018-07-22T08:49:45.435Z,25.20
2018-07-22T08:50:51.555Z,25.30
2018-07-22T08:51:56.432Z,25.30
2018-07-22T08:53:02.468Z,25.30
2018-07-22T08:54:10.294Z,25.30
2018-07-22T08:55:16.597Z,25.30
2018-07-22T08:56:22.647Z,25.30
2018-07-22T08:57:29.527Z,25.30
2018-07-22T08:58:36.687Z,25.30
2018-07-22T08:59:42.603Z,25.30
2018-07-22T09:00:48.741Z,25.30
2018-07-22T09:01:55.734Z,25.30
2018-07-22T09:03:02.293Z,25.40
2018-07-22T09:04:09.356Z,25.40
2018-07-22T09:05:14.643Z,25.40
2018-07-22T09:06:19.655Z,25.40
2018-07-22T09:07:24.735Z,25.40
2018-07-22T09:08:29.646Z,25.40
2018-07-22T09:09:34.774Z,25.40
2018-07-22T09:10:39.935Z,25.40
2018-07-22T09:11:45.489Z,25.40
2018-07-22T09:12:50.321Z,25.40
2018-07-22T09:13:56.251Z,25.40
2018-07-22T09:15:01.425Z,25.40
2018-07-22T09:16:06.523Z,25.40
2018-07-22T09:17:12.512Z,25.40
2018-07-22T09:18:17.642Z,25.40
2018-07-22T09:19:23.077Z,25.40
2018-07-22T09:20:28.241Z,25.40
2018-07-22T09:21:33.275Z,25.40
2018-07-22T09:22:39.137Z,25.40
2018-07-22T09:23:45.112Z,25.40
2018-07-22T09:24:50.378Z,25.40
2018-07-22T09:25:56.306Z,25.40
2018-07-22T09:27:01.359Z,25.40
2018-07-22T09:28:06.519Z,25.50
2018-07-22T09:29:11.748Z,25.50
2018-07-22T09:30:16.809Z,25.50
2018-07-22T09:31:22.050Z,25.50
2018-07-22T09:32:27.289Z,25.50
2018-07-22T09:33:32.133Z,25.50
2018-07-22T09:34:37.352Z,25.50
2018-07-22T09:35:43.243Z,25.50
2018-07-22T09:36:48.445Z,25.50
2018-07-22T09:37:53.465Z,25.50
2018-07-22T09:38:58.752Z,25.50
2018-07-22T09:40:03.965Z,25.50
2018-07-22T09:41:08.765Z,25.50
2018-07-22T09:42:13.845Z,25.50
2018-07-22T09:43:18.861Z,25.50
2018-07-22T09:44:24.090Z,25.50
2018-07-22T09:45:29.911Z,25.50
2018-07-22T09:46:34.878Z,25.50
2018-07-22T09:47:39.846Z,25.60
2018-07-22T09:48:44.807Z,25.60
2018-07-22T09:49:50.038Z,25.60
2018-07-22T09:50:54.955Z,25.60
2018-07-22T09:51:59.950Z,25.60
2018-07-22T09:53:05.180Z,25.60
2018-07-22T09:54:10.923Z,25.60
2018-07-22T09:55:15.946Z,25.60
2018-07-22T09:56:21.699Z,25.60
2018-07-22T09:57:26.808Z,25.60
2018-07-22T09:58:31.748Z,25.60
2018-07-22T09:59:36.761Z,25.60
2018-07-22T10:00:42.088Z,25.60
2018-07-22T10:01:47.136Z,25.60
2018-07-22T10:02:51.902Z,25.60
2018-07-22T10:03:57.079Z,25.60
2018-07-22T10:05:01.910Z,25.60
2018-07-22T10:06:07.835Z,25.60
2018-07-22T10:07:13.593Z,25.70
2018-07-22T10:08:18.640Z,25.70
2018-07-22T10:09:23.881Z,25.70
2018-07-22T10:10:28.964Z,25.70
2018-07-22T10:11:34.178Z,25.70
2018-07-22T10:12:39.597Z,25.70
2018-07-22T10:13:46.007Z,25.70
2018-07-22T10:14:51.822Z,25.70
2018-07-22T10:15:57.231Z,25.70
2018-07-22T10:17:03.243Z,25.70
2018-07-22T10:18:08.595Z,25.70
2018-07-22T10:19:14.698Z,25.70
2018-07-22T10:20:21.222Z,25.70
2018-07-22T10:21:27.075Z,25.70
2018-07-22T10:22:32.910Z,25.70
2018-07-22T10:23:37.927Z,25.70
2018-07-22T10:24:44.023Z,25.70
2018-07-22T10:25:49.013Z,25.70
2018-07-22T10:26:54.117Z,25.70
2018-07-22T10:27:59.238Z,25.70
2018-07-22T10:29:04.269Z,25.70
2018-07-22T10:30:10.148Z,25.70
2018-07-22T10:31:15.437Z,25.70
2018-07-22T10:32:20.569Z,25.70
2018-07-22T10:33:25.508Z,25.70
2018-07-22T10:34:30.543Z,25.70
2018-07-22T10:35:35.462Z,25.70
2018-07-22T10:36:41.217Z,25.70
2018-07-22T10:37:46.467Z,25.70
2018-07-22T10:38:51.693Z,25.70
2018-07-22T10:39:57.516Z,25.70
2018-07-22T10:41:02.386Z,25.70
2018-07-22T10:42:07.231Z,25.70
2018-07-22T10:43:12.603Z,25.70
2018-07-22T10:44:17.519Z,25.70
2018-07-22T10:45:22.437Z,25.70
2018-07-22T10:46:27.433Z,25.70
2018-07-22T10:47:32.287Z,25.70
2018-07-22T10:48:37.313Z,25.70
2018-07-22T10:49:42.370Z,25.80
2018-07-22T10:50:48.185Z,25.80
2018-07-22T10:51:52.939Z,25.80
2018-07-22T10:52:57.872Z,25.80
2018-07-22T10:54:03.114Z,25.80
2018-07-22T10:55:08.895Z,25.70
2018-07-22T10:56:13.771Z,25.70
2018-07-22T10:57:19.462Z,25.70
2018-07-22T10:58:24.710Z,25.70
2018-07-22T10:59:29.789Z,25.70
2018-07-22T11:00:35.706Z,25.70
2018-07-22T11:01:41.397Z,25.70
2018-07-22T11:02:47.332Z,25.80
2018-07-22T11:03:52.314Z,25.80
2018-07-22T11:04:57.417Z,25.80
2018-07-22T11:06:02.994Z,25.80
2018-07-22T11:07:07.961Z,25.80
2018-07-22T11:08:13.907Z,25.80
2018-07-22T11:09:18.855Z,25.80
2018-07-22T11:10:24.547Z,25.80
2018-07-22T11:11:29.575Z,25.80
2018-07-22T11:12:34.454Z,25.80
2018-07-22T11:13:39.321Z,25.80
2018-07-22T11:14:44.491Z,25.80
2018-07-22T11:15:50.300Z,25.90
2018-07-22T11:16:55.639Z,25.90
2018-07-22T11:18:01.457Z,25.90
2018-07-22T11:19:07.366Z,25.90
2018-07-22T11:20:12.581Z,25.90
2018-07-22T11:21:17.959Z,25.90
2018-07-22T11:22:23.746Z,25.90
2018-07-22T11:23:29.253Z,25.90
2018-07-22T11:24:34.325Z,25.80
2018-07-22T11:25:40.329Z,25.80
2018-07-22T11:26:45.193Z,25.80
2018-07-22T11:27:50.263Z,25.80
2018-07-22T11:28:56.027Z,25.80
2018-07-22T11:30:00.921Z,25.80
2018-07-22T11:31:05.989Z,25.80
2018-07-22T11:32:11.869Z,25.80
2018-07-22T11:33:16.932Z,25.80
2018-07-22T11:34:21.751Z,25.80
2018-07-22T11:35:26.783Z,25.80
2018-07-22T11:36:31.865Z,25.80
2018-07-22T11:37:37.595Z,25.80
2018-07-22T11:38:42.580Z,25.80
2018-07-22T11:39:48.259Z,25.80
2018-07-22T11:40:53.049Z,25.80
2018-07-22T11:41:58.145Z,25.80
2018-07-22T11:43:03.167Z,25.80
2018-07-22T11:44:09.107Z,25.80
2018-07-22T11:45:14.061Z,25.80
2018-07-22T11:46:18.870Z,25.80
2018-07-22T11:47:23.979Z,25.80
2018-07-22T11:48:28.802Z,25.80
2018-07-22T11:49:33.625Z,25.80
2018-07-22T11:50:38.726Z,25.80
2018-07-22T11:51:43.949Z,25.80
2018-07-22T11:52:49.823Z,25.80
2018-07-22T11:53:55.014Z,25.80
2018-07-22T11:55:00.771Z,25.80
2018-07-22T11:56:06.569Z,25.80
2018-07-22T11:57:11.723Z,25.80
2018-07-22T11:58:16.714Z,25.80
2018-07-22T11:59:22.542Z,25.80
2018-07-22T12:00:27.724Z,25.80
2018-07-22T12:01:32.835Z,25.80
2018-07-22T12:02:37.708Z,25.80
2018-07-22T12:03:42.798Z,25.80
2018-07-22T12:04:49.195Z,25.80
2018-07-22T12:05:54.718Z,25.80
2018-07-22T12:07:00.034Z,25.80
2018-07-22T12:08:06.265Z,25.80
2018-07-22T12:09:11.349Z,25.80
2018-07-22T12:10:16.464Z,25.80
2018-07-22T12:11:21.568Z,25.80
2018-07-22T12:12:26.515Z,25.80
2018-07-22T12:13:31.423Z,25.80
2018-07-22T12:14:36.342Z,25.80
2018-07-22T12:15:42.268Z,25.80
2018-07-22T12:16:47.417Z,25.80
2018-07-22T12:17:52.490Z,25.80
2018-07-22T12:18:57.342Z,25.80
2018-07-22T12:20:02.202Z,25.80
2018-07-22T12:21:07.161Z,25.80
2018-07-22T12:22:12.173Z,25.80
2018-07-22T12:23:18.086Z,25.80
2018-07-22T12:24:23.366Z,25.80
2018-07-22T12:25:29.472Z,25.80
2018-07-22T12:26:34.338Z,25.80
2018-07-22T12:27:40.072Z,25.80
2018-07-22T12:28:44.924Z,25.80
2018-07-22T12:29:49.864Z,25.80
2018-07-22T12:30:54.871Z,25.80
2018-07-22T12:31:59.703Z,25.90
2018-07-22T12:33:04.530Z,25.90
2018-07-22T12:34:10.323Z,25.90
2018-07-22T12:35:15.469Z,25.90
2018-07-22T12:36:21.414Z,25.90
2018-07-22T12:37:26.424Z,25.90
2018-07-22T12:38:32.515Z,25.90
2018-07-22T12:39:37.468Z,25.90
2018-07-22T12:40:42.404Z,25.90
2018-07-22T12:41:47.260Z,25.90
2018-07-22T12:42:52.260Z,25.90
2018-07-22T12:43:57.275Z,25.90
2018-07-22T12:45:02.533Z,25.90
2018-07-22T12:46:07.723Z,25.90
2018-07-22T12:47:13.463Z,25.90
2018-07-22T12:48:19.430Z,25.90
2018-07-22T12:49:25.442Z,25.90
2018-07-22T12:50:31.462Z,25.90
2018-07-22T12:51:37.574Z,25.90
2018-07-22T12:52:43.475Z,25.90
2018-07-22T12:53:48.541Z,25.90
2018-07-22T12:54:53.632Z,25.90
2018-07-22T12:55:58.861Z,25.90
2018-07-22T12:57:04.559Z,25.90
2018-07-22T12:58:09.349Z,25.90
2018-07-22T12:59:14.383Z,25.90
2018-07-22T13:00:19.555Z,25.90
2018-07-22T13:01:24.682Z,25.90
2018-07-22T13:02:29.764Z,25.90
2018-07-22T13:03:35.144Z,25.90
2018-07-22T13:04:40.020Z,25.90
2018-07-22T13:05:45.126Z,25.90
2018-07-22T13:06:50.423Z,25.90
2018-07-22T13:07:55.544Z,25.90
2018-07-22T13:09:00.558Z,25.90
2018-07-22T13:10:06.290Z,25.90
2018-07-22T13:11:11.388Z,25.90
2018-07-22T13:12:16.610Z,25.90
2018-07-22T13:13:22.610Z,25.90
2018-07-22T13:14:27.800Z,25.90
2018-07-22T13:15:32.723Z,25.90
2018-07-22T13:16:37.795Z,25.90
2018-07-22T13:17:43.620Z,25.90
2018-07-22T13:18:48.733Z,25.90
2018-07-22T13:19:53.530Z,25.90
2018-07-22T13:20:58.589Z,25.90
2018-07-22T13:22:03.618Z,25.90
2018-07-22T13:23:08.578Z,25.90
2018-07-22T13:24:13.613Z,26.00
2018-07-22T13:25:18.628Z,26.00
2018-07-22T13:26:24.471Z,25.90
2018-07-22T13:27:29.329Z,26.00
2018-07-22T13:28:34.287Z,25.90
2018-07-22T13:29:39.354Z,26.00
2018-07-22T13:30:44.298Z,26.00
2018-07-22T13:31:49.434Z,26.00
2018-07-22T13:32:54.279Z,26.00
2018-07-22T13:33:59.381Z,26.00
2018-07-22T13:35:04.687Z,26.00
2018-07-22T13:36:09.955Z,26.00
2018-07-22T13:37:14.879Z,26.00
2018-07-22T13:38:21.001Z,26.00
2018-07-22T13:39:26.154Z,26.00
2018-07-22T13:40:31.881Z,26.00
2018-07-22T13:41:36.968Z,26.00
2018-07-22T13:42:42.075Z,26.00
2018-07-22T13:43:47.100Z,26.00
2018-07-22T13:44:52.181Z,26.00
2018-07-22T13:45:57.398Z,26.00
2018-07-22T13:47:02.533Z,26.00
2018-07-22T13:48:07.455Z,26.00
2018-07-22T13:49:13.262Z,26.00
2018-07-22T13:50:18.326Z,26.00
2018-07-22T13:51:23.249Z,26.00
2018-07-22T13:52:29.201Z,26.00
2018-07-22T13:53:34.283Z,26.00
2018-07-22T13:54:39.366Z,26.00
2018-07-22T13:55:44.479Z,26.00
2018-07-22T13:56:49.894Z,26.00
2018-07-22T13:57:55.045Z,26.00
2018-07-22T13:59:00.757Z,26.00
2018-07-22T14:00:05.709Z,26.00
2018-07-22T14:01:10.713Z,26.00
2018-07-22T14:02:15.900Z,26.00